Norfolk, Virginia
Traffic Map
Current Weather Conditions
Norfolk, Virginia
Scattered Clouds
Scattered Clouds
74°
Feels Like: 74°
Wind Chill: 74° Ceiling: Unl
Heat Index: 74° Visibility: 10mi
Dew Point: 69° Wind: 7mph
Humidity: 85% Direction: 160° (SSE)
Pressure: 29.9in Gusts: 0mph
Raw Report DataKORF 272022Z 16006KT 10SM SCT009 SCT100 23/21 A2990 RMK AO2 T02330206
Traffic Incident Summary
Active as of:
Severity:
Category:
InformationThere was an issue retrieving the traffic information for this location. Please try a different location or try again shortly.
Advertisements
Track Severe Weather on mobile